createdAt,value
2022-12-28T00:02:18.641Z,100729.23
2022-12-28T00:04:47.150Z,100730.02
2022-12-28T00:07:17.266Z,100728.05
2022-12-28T00:09:44.884Z,100722.02
2022-12-28T00:12:13.048Z,100723.79
2022-12-28T00:14:40.957Z,100715.77
2022-12-28T00:17:09.130Z,100718.62
2022-12-28T00:19:39.452Z,100719.89
2022-12-28T00:22:10.564Z,100717.13
2022-12-28T00:24:38.326Z,100722.54
2022-12-28T00:27:06.344Z,100727.09
2022-12-28T00:29:37.253Z,100728.16
2022-12-28T00:32:05.340Z,100724.88
2022-12-28T00:34:33.552Z,100726.66
2022-12-28T00:37:08.528Z,100726.66
2022-12-28T00:39:44.689Z,100728.00
2022-12-28T00:42:16.073Z,100724.11
2022-12-28T00:44:45.962Z,100729.21
2022-12-28T00:47:17.015Z,100730.48
2022-12-28T00:49:44.725Z,100734.83
2022-12-28T00:52:15.915Z,100733.51
2022-12-28T00:54:43.641Z,100731.56
2022-12-28T00:57:14.277Z,100731.04
2022-12-28T00:59:42.244Z,100733.15
2022-12-28T01:02:10.400Z,100734.16
2022-12-28T01:04:38.129Z,100727.25
2022-12-28T01:07:07.521Z,100726.08
2022-12-28T01:09:37.231Z,100725.36
2022-12-28T01:12:07.412Z,100724.16
2022-12-28T01:14:35.195Z,100725.36
2022-12-28T01:17:02.955Z,100722.41
2022-12-28T01:19:31.961Z,100723.57
2022-12-28T01:22:02.800Z,100724.86
2022-12-28T01:24:32.467Z,100720.07
2022-12-28T01:27:02.077Z,100720.58
2022-12-28T01:29:33.364Z,100721.74
2022-12-28T01:32:02.045Z,100716.82
2022-12-28T01:34:30.788Z,100714.70
2022-12-28T01:37:01.803Z,100716.61
2022-12-28T01:39:30.051Z,100711.59
2022-12-28T01:41:58.346Z,100711.63
2022-12-28T01:44:43.549Z,100704.88
2022-12-28T01:47:15.112Z,100702.11
2022-12-28T01:50:32.017Z,100700.23
2022-12-28T01:53:05.857Z,100704.34
2022-12-28T01:55:36.628Z,100704.77
2022-12-28T01:58:13.014Z,100705.15
2022-12-28T02:00:43.258Z,100706.56
2022-12-28T02:03:16.917Z,100702.52
2022-12-28T02:05:50.908Z,100702.61
2022-12-28T02:08:26.385Z,100700.15
2022-12-28T02:10:55.301Z,100698.98
2022-12-28T02:13:24.670Z,100697.11
2022-12-28T02:15:53.627Z,100693.96
2022-12-28T02:18:22.084Z,100693.32
2022-12-28T02:21:20.422Z,100691.54
2022-12-28T02:24:31.769Z,100687.55
2022-12-28T02:27:23.714Z,100688.56
2022-12-28T02:30:12.304Z,100683.23
2022-12-28T02:32:58.896Z,100682.39
2022-12-28T02:35:48.294Z,100681.48
2022-12-28T02:38:26.125Z,100676.02
2022-12-28T02:41:06.591Z,100679.65
2022-12-28T02:43:35.614Z,100675.27
2022-12-28T02:46:34.871Z,100672.33
2022-12-28T02:50:06.549Z,100670.09
2022-12-28T02:52:42.628Z,100663.89
2022-12-28T02:55:56.701Z,100662.11
2022-12-28T02:58:57.259Z,100660.88
2022-12-28T03:01:53.663Z,100657.63
2022-12-28T03:04:30.871Z,100650.77
2022-12-28T03:07:35.649Z,100646.01
2022-12-28T03:10:23.274Z,100643.98
2022-12-28T03:13:01.171Z,100637.19
2022-12-28T03:15:36.421Z,100632.65
2022-12-28T03:18:31.831Z,100629.38
2022-12-28T03:21:23.286Z,100626.23
2022-12-28T03:24:13.647Z,100631.77
2022-12-28T03:27:07.721Z,100625.80
2022-12-28T03:30:06.589Z,100630.34
2022-12-28T03:32:36.886Z,100638.23
2022-12-28T03:35:06.680Z,100639.09
2022-12-28T03:37:43.362Z,100636.44
2022-12-28T03:40:33.663Z,100636.64
2022-12-28T03:43:29.225Z,100634.59
2022-12-28T03:46:05.172Z,100640.38
2022-12-28T03:48:37.192Z,100637.81
2022-12-28T03:51:08.259Z,100638.61
2022-12-28T03:53:42.382Z,100635.98
2022-12-28T03:56:15.400Z,100638.09
2022-12-28T03:58:45.549Z,100631.35
2022-12-28T04:01:15.212Z,100619.91
2022-12-28T04:03:44.644Z,100619.98
2022-12-28T04:06:16.167Z,100614.77
2022-12-28T04:08:45.967Z,100608.41
2022-12-28T04:11:14.449Z,100603.84
2022-12-28T04:13:44.951Z,100598.95
2022-12-28T04:16:16.298Z,100600.56
2022-12-28T04:18:44.416Z,100601.35
2022-12-28T04:21:14.557Z,100600.18
2022-12-28T04:23:49.432Z,100602.87
2022-12-28T04:26:25.518Z,100598.30
2022-12-28T04:28:54.476Z,100608.38
2022-12-28T04:31:23.010Z,100609.96
2022-12-28T04:33:59.247Z,100607.34
2022-12-28T04:36:27.321Z,100605.95
2022-12-28T04:38:56.739Z,100605.30
2022-12-28T04:41:25.822Z,100604.08
2022-12-28T04:43:56.580Z,100594.99
2022-12-28T04:46:25.987Z,100592.89
2022-12-28T04:49:24.387Z,100601.48
2022-12-28T04:51:52.265Z,100603.23
2022-12-28T04:54:19.826Z,100611.88
2022-12-28T04:56:47.414Z,100611.16
2022-12-28T04:59:15.634Z,100611.16
2022-12-28T05:01:43.419Z,100616.92
2022-12-28T05:04:11.294Z,100612.70
2022-12-28T05:06:40.174Z,100612.13
2022-12-28T05:09:10.906Z,100606.70
2022-12-28T05:11:38.882Z,100591.13
2022-12-28T05:14:07.145Z,100584.17
2022-12-28T05:16:36.210Z,100571.51
2022-12-28T05:19:03.871Z,100575.97
2022-12-28T05:21:31.610Z,100562.36
2022-12-28T05:23:59.538Z,100547.59
2022-12-28T05:26:29.416Z,100543.51
2022-12-28T05:28:58.502Z,100540.46
2022-12-28T05:31:27.978Z,100535.34
2022-12-28T05:33:55.855Z,100529.96
2022-12-28T05:36:26.464Z,100529.38
2022-12-28T05:38:56.502Z,100530.67
2022-12-28T05:41:28.928Z,100533.69
2022-12-28T05:43:59.288Z,100530.04
2022-12-28T05:46:31.362Z,100523.21
2022-12-28T05:49:25.574Z,100521.01
2022-12-28T05:51:54.175Z,100515.47
2022-12-28T05:54:22.343Z,100513.30
2022-12-28T05:56:52.158Z,100510.33
2022-12-28T05:59:20.109Z,100509.29
2022-12-28T06:01:47.947Z,100503.14
2022-12-28T06:04:18.315Z,100502.02
2022-12-28T06:06:47.371Z,100494.84
2022-12-28T06:09:16.575Z,100497.55
2022-12-28T06:11:44.602Z,100501.99
2022-12-28T06:14:13.841Z,100500.46
2022-12-28T06:16:43.145Z,100497.84
2022-12-28T06:19:22.200Z,100493.98
2022-12-28T06:21:50.375Z,100491.23
2022-12-28T06:24:19.634Z,100480.89
2022-12-28T06:26:47.841Z,100479.47
2022-12-28T06:29:16.407Z,100486.11
2022-12-28T06:31:50.893Z,100488.31
2022-12-28T06:34:18.485Z,100492.45
2022-12-28T06:36:51.299Z,100499.10
2022-12-28T06:39:19.941Z,100488.99
2022-12-28T06:41:47.775Z,100490.84
2022-12-28T06:44:15.782Z,100484.95
2022-12-28T06:46:43.895Z,100482.58
2022-12-28T06:49:14.576Z,100480.08
2022-12-28T06:51:42.460Z,100483.45
2022-12-28T06:54:11.049Z,100474.35
2022-12-28T06:56:38.944Z,100469.65
2022-12-28T06:59:07.293Z,100466.99
2022-12-28T07:01:41.368Z,100459.60
2022-12-28T07:04:10.439Z,100458.38
2022-12-28T07:06:43.248Z,100452.63
2022-12-28T07:09:14.883Z,100455.86
2022-12-28T07:11:44.376Z,100461.27
2022-12-28T07:14:12.189Z,100462.39
2022-12-28T07:19:08.551Z,100468.41
2022-12-28T07:21:38.975Z,100458.33
2022-12-28T07:24:08.003Z,100452.29
2022-12-28T07:26:38.105Z,100453.26
2022-12-28T07:29:08.652Z,100450.33
2022-12-28T07:31:44.836Z,100450.55
2022-12-28T07:34:16.581Z,100453.65
2022-12-28T07:36:44.296Z,100456.39
2022-12-28T07:39:12.043Z,100452.30
2022-12-28T07:41:41.024Z,100440.48
2022-12-28T07:44:10.441Z,100448.13
2022-12-28T07:46:41.343Z,100454.75
2022-12-28T07:50:23.463Z,100450.36
2022-12-28T07:52:51.898Z,100441.46
2022-12-28T07:55:20.065Z,100437.05
2022-12-28T07:57:51.319Z,100435.83
2022-12-28T08:00:19.260Z,100426.83
2022-12-28T08:02:49.086Z,100420.04
2022-12-28T08:05:18.499Z,100422.94
2022-12-28T08:07:46.269Z,100432.05
2022-12-28T08:10:14.301Z,100430.85
2022-12-28T08:12:44.055Z,100429.39
2022-12-28T08:15:13.349Z,100423.50
2022-12-28T08:17:40.945Z,100420.30
2022-12-28T08:20:10.019Z,100414.56
2022-12-28T08:22:40.569Z,100420.71
2022-12-28T08:25:08.595Z,100426.20
2022-12-28T08:27:38.709Z,100420.81
2022-12-28T08:30:07.790Z,100412.38
2022-12-28T08:32:35.466Z,100414.79
2022-12-28T08:35:06.073Z,100409.91
2022-12-28T08:37:33.973Z,100404.14
2022-12-28T08:40:03.680Z,100397.03
2022-12-28T08:42:33.727Z,100389.55
2022-12-28T08:45:03.685Z,100383.17
2022-12-28T08:47:34.136Z,100378.33
2022-12-28T08:50:01.922Z,100377.19
2022-12-28T08:52:29.514Z,100380.95
2022-12-28T08:54:58.704Z,100375.64
2022-12-28T08:57:26.411Z,100376.46
2022-12-28T08:59:57.690Z,100381.23
2022-12-28T09:02:25.520Z,100372.45
2022-12-28T09:04:53.261Z,100376.60
2022-12-28T09:07:20.911Z,100372.23
2022-12-28T09:09:53.370Z,100374.11
2022-12-28T09:12:21.210Z,100372.99
2022-12-28T09:14:50.638Z,100375.83
2022-12-28T09:17:20.114Z,100372.65
2022-12-28T09:19:47.889Z,100366.18
2022-12-28T09:22:19.333Z,100364.71
2022-12-28T09:24:48.716Z,100360.52
2022-12-28T09:27:19.855Z,100354.70
2022-12-28T09:29:48.186Z,100356.05
2022-12-28T09:32:19.023Z,100360.38
2022-12-28T09:34:46.844Z,100357.30
2022-12-28T09:37:16.458Z,100349.63
2022-12-28T09:39:44.165Z,100340.17
2022-12-28T09:42:23.976Z,100337.45
2022-12-28T09:45:02.521Z,100327.19
2022-12-28T09:47:45.657Z,100323.76
2022-12-28T09:50:16.961Z,100316.14
2022-12-28T09:53:08.969Z,100316.05
2022-12-28T09:55:41.675Z,100314.11
2022-12-28T09:58:19.112Z,100305.74
2022-12-28T10:00:50.993Z,100311.40
2022-12-28T10:03:41.722Z,100308.02
2022-12-28T10:06:14.305Z,100303.88
2022-12-28T10:08:47.819Z,100298.12
2022-12-28T10:11:25.784Z,100296.69
2022-12-28T10:14:00.162Z,100292.77
2022-12-28T10:16:32.652Z,100288.70
2022-12-28T10:19:01.038Z,100289.33
2022-12-28T10:21:33.329Z,100280.37
2022-12-28T10:24:30.938Z,100269.34
2022-12-28T10:26:55.969Z,100264.02
2022-12-28T10:29:26.423Z,100255.10
2022-12-28T10:32:05.010Z,100255.59
2022-12-28T10:34:50.152Z,100250.11
2022-12-28T10:37:20.872Z,100240.05
2022-12-28T10:39:59.432Z,100237.80
2022-12-28T10:42:41.977Z,100234.65
2022-12-28T10:45:39.947Z,100226.27
2022-12-28T10:48:38.953Z,100219.20
2022-12-28T10:51:18.681Z,100212.38
2022-12-28T10:53:50.874Z,100205.13
2022-12-28T10:56:29.160Z,100190.56
2022-12-28T10:59:16.793Z,100175.08
2022-12-28T11:01:46.625Z,100171.92
2022-12-28T11:04:20.119Z,100166.92
2022-12-28T11:06:55.693Z,100161.36
2022-12-28T11:09:32.809Z,100162.75
2022-12-28T11:12:24.352Z,100154.98
2022-12-28T11:14:54.049Z,100150.22
2022-12-28T11:17:25.667Z,100148.77
2022-12-28T11:20:21.664Z,100138.79
2022-12-28T11:22:50.857Z,100131.44
2022-12-28T11:25:29.167Z,100131.98
2022-12-28T11:27:58.721Z,100120.54
2022-12-28T11:30:28.966Z,100114.18
2022-12-28T11:32:59.718Z,100110.60
2022-12-28T11:35:34.590Z,100111.05
2022-12-28T11:38:06.812Z,100103.98
2022-12-28T11:40:43.555Z,100119.55
2022-12-28T11:43:30.250Z,100114.09
2022-12-28T11:46:29.041Z,100106.67
2022-12-28T11:53:44.654Z,100102.38
2022-12-28T11:56:16.062Z,100098.64
2022-12-28T11:59:10.846Z,100100.21
2022-12-28T12:01:40.996Z,100098.91
2022-12-28T12:04:18.297Z,100094.92
2022-12-28T12:06:48.472Z,100082.48
2022-12-28T12:09:25.981Z,100072.86
2022-12-28T12:11:59.675Z,100074.99
2022-12-28T12:14:42.465Z,100066.06
2022-12-28T12:17:43.269Z,100063.00
2022-12-28T12:20:28.510Z,100049.92
2022-12-28T12:23:08.331Z,100052.55
2022-12-28T12:25:53.997Z,100043.14
2022-12-28T12:28:47.076Z,100038.44
2022-12-28T12:31:37.447Z,100030.42
2022-12-28T12:34:49.910Z,100029.65
2022-12-28T12:37:45.004Z,100027.17
2022-12-28T12:40:32.601Z,100021.36
2022-12-28T12:43:12.404Z,100021.15
2022-12-28T12:46:17.188Z,100021.88
2022-12-28T12:49:03.585Z,100025.16
2022-12-28T12:51:42.409Z,100027.23
2022-12-28T12:54:52.379Z,100026.34
2022-12-28T12:57:36.204Z,100018.55
2022-12-28T13:00:16.897Z,100019.22
2022-12-28T13:02:51.989Z,100013.91
2022-12-28T13:05:26.939Z,100003.45
2022-12-28T13:07:58.070Z,99999.53
2022-12-28T13:10:45.024Z,100001.41
2022-12-28T13:13:41.221Z,99995.52
2022-12-28T13:16:12.477Z,99998.55
2022-12-28T13:18:58.816Z,99996.02
2022-12-28T13:21:30.047Z,99993.74
2022-12-28T13:23:58.837Z,99983.13
2022-12-28T13:26:29.244Z,99985.45
2022-12-28T13:29:01.642Z,99986.85
2022-12-28T13:31:35.841Z,99981.69
2022-12-28T13:34:18.002Z,99983.35
2022-12-28T13:36:56.468Z,99979.69
2022-12-28T13:39:26.799Z,99975.39
2022-12-28T13:42:00.283Z,99971.14
2022-12-28T13:44:33.325Z,99968.77
2022-12-28T13:47:11.458Z,99959.19
2022-12-28T13:50:15.668Z,99961.75
2022-12-28T13:53:02.637Z,99957.10
2022-12-28T13:55:40.384Z,99959.27
2022-12-28T13:58:23.207Z,99956.69
2022-12-28T14:00:53.478Z,99960.26
2022-12-28T14:03:23.711Z,99953.20
2022-12-28T14:05:59.792Z,99958.36
2022-12-28T14:08:29.361Z,99950.71
2022-12-28T14:10:59.317Z,99944.30
2022-12-28T14:13:30.924Z,99934.70
2022-12-28T14:16:02.603Z,99932.56
2022-12-28T14:18:36.190Z,99924.59
2022-12-28T14:21:07.731Z,99927.83
2022-12-28T14:23:39.330Z,99924.95
2022-12-28T14:26:18.798Z,99919.34
2022-12-28T14:28:50.807Z,99915.53
2022-12-28T14:31:24.958Z,99918.30
2022-12-28T14:33:56.776Z,99916.25
2022-12-28T14:36:39.487Z,99916.21
2022-12-28T14:39:26.912Z,99918.21
2022-12-28T14:41:59.326Z,99907.52
2022-12-28T14:44:32.704Z,99910.23
2022-12-28T14:47:23.516Z,99912.64
2022-12-28T14:54:26.354Z,99901.67
2022-12-28T14:57:18.000Z,99900.88
2022-12-28T14:59:56.651Z,99904.20
2022-12-28T15:02:40.942Z,99902.08
2022-12-28T15:05:36.675Z,99905.64
2022-12-28T15:08:05.731Z,99898.13
2022-12-28T15:10:55.770Z,99898.20
2022-12-28T15:13:27.076Z,99903.45
2022-12-28T15:15:58.665Z,99900.85
2022-12-28T15:18:29.151Z,99900.05
2022-12-28T15:21:02.739Z,99899.05
2022-12-28T15:23:32.928Z,99903.05
2022-12-28T15:26:10.987Z,99908.06
2022-12-28T15:28:41.813Z,99905.93
2022-12-28T15:31:13.565Z,99904.97
2022-12-28T15:33:42.119Z,99902.00
2022-12-28T15:36:17.823Z,99897.74
2022-12-28T15:38:47.693Z,99898.55
2022-12-28T15:41:36.751Z,99895.27
2022-12-28T15:44:06.821Z,99898.31
2022-12-28T15:46:34.994Z,99888.14
2022-12-28T15:49:29.024Z,99885.33
2022-12-28T15:52:00.137Z,99881.13
2022-12-28T15:54:29.793Z,99879.25
2022-12-28T15:56:57.873Z,99881.17
2022-12-28T15:59:31.312Z,99883.06
2022-12-28T16:02:00.678Z,99886.71
2022-12-28T16:04:31.453Z,99881.00
2022-12-28T16:06:59.387Z,99876.77
2022-12-28T16:09:30.211Z,99873.77
2022-12-28T16:11:59.324Z,99872.75
2022-12-28T16:14:28.221Z,99868.08
2022-12-28T16:16:56.478Z,99862.70
2022-12-28T16:19:27.503Z,99862.79
2022-12-28T16:21:55.383Z,99862.66
2022-12-28T16:24:23.222Z,99861.09
2022-12-28T16:26:51.499Z,99855.98
2022-12-28T16:29:27.026Z,99856.30
2022-12-28T16:32:01.630Z,99861.54
2022-12-28T16:34:31.310Z,99854.58
2022-12-28T16:36:59.487Z,99855.66
2022-12-28T16:39:29.506Z,99861.19
2022-12-28T16:41:58.477Z,99864.31
2022-12-28T16:44:27.631Z,99866.64
2022-12-28T16:46:58.335Z,99868.20
2022-12-28T16:49:55.828Z,99871.13
2022-12-28T16:52:24.616Z,99864.11
2022-12-28T16:54:52.499Z,99858.03
2022-12-28T16:57:20.302Z,99853.06
2022-12-28T16:59:49.831Z,99853.54
2022-12-28T17:02:18.244Z,99858.67
2022-12-28T17:04:48.139Z,99855.06
2022-12-28T17:07:16.845Z,99854.87
2022-12-28T17:09:50.153Z,99852.94
2022-12-28T17:12:18.841Z,99849.41
2022-12-28T17:14:48.333Z,99845.73
2022-12-28T17:17:19.228Z,99843.16
2022-12-28T17:19:47.299Z,99840.52
2022-12-28T17:22:15.680Z,99838.95
2022-12-28T17:24:45.079Z,99841.32
2022-12-28T17:27:18.690Z,99832.63
2022-12-28T17:29:50.931Z,99830.09
2022-12-28T17:32:18.882Z,99826.89
2022-12-28T17:34:46.777Z,99826.67
2022-12-28T17:37:15.145Z,99825.64
2022-12-28T17:39:43.870Z,99825.67
2022-12-28T17:42:16.902Z,99824.75
2022-12-28T17:44:51.243Z,99819.69
2022-12-28T17:47:19.627Z,99820.73
2022-12-28T17:49:48.363Z,99820.25
2022-12-28T17:52:21.488Z,99823.48
2022-12-28T17:54:52.644Z,99819.48
2022-12-28T17:57:25.964Z,99813.89
2022-12-28T17:59:55.482Z,99819.39
2022-12-28T18:02:27.053Z,99817.73
2022-12-28T18:04:57.881Z,99809.11
2022-12-28T18:07:28.915Z,99811.67
2022-12-28T18:09:59.301Z,99811.31
2022-12-28T18:12:29.346Z,99811.27
2022-12-28T18:14:57.859Z,99817.60
2022-12-28T18:17:26.040Z,99821.23
2022-12-28T18:19:56.135Z,99818.98
2022-12-28T18:22:25.373Z,99815.94
2022-12-28T18:24:55.062Z,99817.17
2022-12-28T18:27:26.022Z,99813.91
2022-12-28T18:29:58.189Z,99814.55
2022-12-28T18:32:28.622Z,99809.71
2022-12-28T18:34:59.915Z,99806.73
2022-12-28T18:37:28.515Z,99804.07
2022-12-28T18:39:57.132Z,99804.38
2022-12-28T18:42:30.535Z,99809.21
2022-12-28T18:45:00.408Z,99809.25
2022-12-28T18:47:32.785Z,99805.19
2022-12-28T18:50:57.253Z,99805.77
2022-12-28T18:53:28.882Z,99803.16
2022-12-28T18:56:02.098Z,99800.42
2022-12-28T18:58:33.024Z,99798.50
2022-12-28T19:01:25.893Z,99801.11
2022-12-28T19:04:04.457Z,99800.73
2022-12-28T19:06:34.696Z,99793.35
2022-12-28T19:09:07.507Z,99784.28
2022-12-28T19:11:40.257Z,99781.38
2022-12-28T19:14:14.649Z,99783.29
2022-12-28T19:16:46.546Z,99784.65
2022-12-28T19:19:17.295Z,99788.14
2022-12-28T19:21:50.440Z,99789.22
2022-12-28T19:24:23.569Z,99790.02
2022-12-28T19:26:53.957Z,99797.65
2022-12-28T19:29:24.373Z,99793.70
2022-12-28T19:31:55.042Z,99796.95
2022-12-28T19:34:27.149Z,99792.03
2022-12-28T19:36:58.805Z,99791.78
2022-12-28T19:39:28.569Z,99790.94
2022-12-28T19:41:58.995Z,99792.22
2022-12-28T19:44:31.545Z,99787.84
2022-12-28T19:47:03.161Z,99794.94
2022-12-28T19:49:34.426Z,99789.35
2022-12-28T19:52:08.358Z,99788.66
2022-12-28T19:54:39.563Z,99790.95
2022-12-28T19:57:08.747Z,99790.23
2022-12-28T19:59:41.230Z,99791.12
2022-12-28T20:02:11.993Z,99792.07
2022-12-28T20:04:44.560Z,99793.67
2022-12-28T20:07:15.591Z,99793.17
2022-12-28T20:09:44.710Z,99792.38
2022-12-28T20:12:15.161Z,99796.36
2022-12-28T20:14:47.318Z,99789.66
2022-12-28T20:17:18.372Z,99792.12
2022-12-28T20:19:48.999Z,99790.44
2022-12-28T20:22:21.612Z,99784.59
2022-12-28T20:24:50.403Z,99781.38
2022-12-28T20:27:20.924Z,99781.41
2022-12-28T20:29:51.253Z,99785.91
2022-12-28T20:32:19.044Z,99785.14
2022-12-28T20:34:49.153Z,99787.45
2022-12-28T20:37:17.570Z,99782.88
2022-12-28T20:39:48.142Z,99780.98
2022-12-28T20:42:35.586Z,99780.86
2022-12-28T20:45:05.644Z,99774.50
2022-12-28T20:47:33.817Z,99773.89
2022-12-28T20:50:57.867Z,99779.80
2022-12-28T20:53:29.746Z,99776.42
2022-12-28T20:56:09.105Z,99771.77
2022-12-28T20:58:39.808Z,99770.00
2022-12-28T21:01:11.615Z,99769.48
2022-12-28T21:03:43.114Z,99773.85
2022-12-28T21:06:13.349Z,99768.83
2022-12-28T21:08:42.680Z,99775.65
2022-12-28T21:11:14.661Z,99778.82
2022-12-28T21:13:45.157Z,99779.10
2022-12-28T21:16:15.256Z,99780.83
2022-12-28T21:18:44.098Z,99778.98
2022-12-28T21:21:19.208Z,99777.45
2022-12-28T21:23:47.827Z,99780.02
2022-12-28T21:26:20.256Z,99775.00
2022-12-28T21:28:49.717Z,99775.48
2022-12-28T21:31:21.587Z,99772.75
2022-12-28T21:33:55.254Z,99774.96
2022-12-28T21:36:24.343Z,99777.20
2022-12-28T21:38:56.153Z,99775.13
2022-12-28T21:41:44.245Z,99776.84
2022-12-28T21:44:15.862Z,99772.27
2022-12-28T21:46:45.462Z,99769.96
2022-12-28T21:49:15.410Z,99768.75
2022-12-28T21:51:43.759Z,99770.16
2022-12-28T21:54:20.592Z,99766.06
2022-12-28T21:56:54.201Z,99766.15
2022-12-28T21:59:25.109Z,99765.08
2022-12-28T22:06:12.918Z,99755.84
2022-12-28T22:09:05.370Z,99757.41
2022-12-28T22:11:53.930Z,99753.80
2022-12-28T22:14:21.595Z,99752.47
2022-12-28T22:16:49.498Z,99751.38
2022-12-28T22:19:17.433Z,99749.92
2022-12-28T22:21:47.029Z,99747.80
2022-12-28T22:24:14.726Z,99745.04
2022-12-28T22:26:42.900Z,99745.71
2022-12-28T22:29:12.037Z,99744.58
2022-12-28T22:31:41.292Z,99744.60
2022-12-28T22:34:09.278Z,99737.98
2022-12-28T22:36:37.034Z,99732.83
2022-12-28T22:39:05.087Z,99727.28
2022-12-28T22:41:34.921Z,99721.50
2022-12-28T22:44:03.577Z,99719.17
2022-12-28T22:46:31.883Z,99719.00
2022-12-28T22:49:51.433Z,99713.73
2022-12-28T22:52:20.183Z,99707.54
2022-12-28T22:54:51.483Z,99704.80
2022-12-28T22:57:19.762Z,99706.20
2022-12-28T22:59:48.378Z,99713.52
2022-12-28T23:02:16.375Z,99706.84
2022-12-28T23:04:46.220Z,99704.91
2022-12-28T23:07:15.532Z,99703.54
2022-12-28T23:09:45.548Z,99701.08
2022-12-28T23:12:15.559Z,99702.28
2022-12-28T23:15:02.322Z,99700.78
2022-12-28T23:17:30.497Z,99700.40
2022-12-28T23:20:17.082Z,99694.14
2022-12-28T23:23:03.333Z,99692.98
2022-12-28T23:25:50.167Z,99693.99
2022-12-28T23:28:18.340Z,99687.46
2022-12-28T23:30:48.356Z,99681.57
2022-12-28T23:33:18.177Z,99675.15
2022-12-28T23:35:46.017Z,99676.16
2022-12-28T23:38:13.753Z,99672.48
2022-12-28T23:40:44.395Z,99668.05
2022-12-28T23:43:12.063Z,99663.91
2022-12-28T23:45:43.366Z,99671.58
2022-12-28T23:52:46.371Z,99657.50
2022-12-28T23:55:16.593Z,99654.01
2022-12-28T23:57:44.534Z,99652.80
